Saturday, April 21, 2018, 8:44 PM EDT
Back to Local

KLWM, Lawrence Municipal Airport

Location: North Andover, MA, United States Lat: 42.717
Local Time: 8:44 PM EDT ( 0:44 GMT) Lon: -71.133
Time Zone: US/Eastern Elev: 147 ft

Show me the last for .
Show Coded

Time T Td Feel RH Dir Speed Gust Alt SLP Vis Weather Sky Remarks
2018-04-21 19:54 54 19 - 25 350° 8 - 30.25 30.25 10 CLR 6-hr Min Temp (8pm): 54.0°F
6-hr Max Temp (8pm): 61.0°F
2018-04-21 18:54 57 18 - 21 330° 12 - 30.22 30.22 10 CLR None
2018-04-21 17:54 59 19 - 20 300° 13 - 30.21 30.21 10 CLR None
2018-04-21 16:54 60 19 - 20 320° 14 22 30.20 30.20 10 CLR None
2018-04-21 15:54 60 22 - 22 320° 14 23 30.19 30.19 10 CLR None
2018-04-21 14:54 59 21 - 22 300° 14 23 30.20 30.20 10 CLR None
2018-04-21 13:54 58 23 - 25 340° 13 20 30.23 30.23 10 CLR 6-hr Min Temp (2pm): 44.1°F
6-hr Max Temp (2pm): 59.0°F
2018-04-21 12:54 56 23 - 27 300° 14 21 30.25 30.25 10 CLR None
2018-04-21 11:54 54 25 - 32 280° 14 22 30.27 30.27 10 CLR None
2018-04-21 10:54 52 24 - 33 320° 10 20 30.29 30.29 10 CLR None
2018-04-21 09:54 50 27 46 40 300° 10 - 30.30 30.30 10 CLR None
2018-04-21 08:54 46 26 41 45 320° 12 - 30.31 30.31 10 CLR None
2018-04-21 07:54 43 28 37 55 290° 10 - 30.31 30.31 10 CLR 6-hr Min Temp (8am): 37.0°F
6-hr Max Temp (8am): 43.0°F
2018-04-21 06:54 39 27 36 61 270° 5 - 30.31 30.31 10 CLR None
2018-04-21 05:54 37 26 33 64 280° 5 - 30.29 30.29 10 CLR None
2018-04-21 04:54 39 27 36 61 270° 5 - 30.28 30.28 10 CLR None
2018-04-21 03:54 39 27 33 61 260° 8 - 30.27 30.27 10 CLR None
2018-04-21 02:54 39 27 35 61 250° 6 - 30.26 30.26 10 CLR None
2018-04-21 01:54 39 26 36 59 270° 5 - 30.26 30.26 10 CLR 6-hr Min Temp (2am): 39.0°F
6-hr Max Temp (2am): 45.0°F
2018-04-21 00:54 40 26 35 57 290° 7 - 30.26 30.26 10 CLR 24-hr Min Temp (1am): 37.0°F
24-hr Max Temp (1am): 54.0°F
2018-04-20 23:54 42 27 38 54 300° 7 - 30.26 30.26 10 BKN085 None
2018-04-20 22:54 42 27 38 54 300° 6 - 30.26 30.27 10 OVC085 None
2018-04-20 21:54 43 27 35 52 280° 8 17 30.26 30.26 10 CLR None
2018-04-20 20:54 43 27 35 52 310° 13 18 30.25 30.25 10 CLR None

Support USWX by starting your Amazon purchase here.